createdAt,value
2022-12-22T00:01:52.943Z,96450.72
2022-12-22T00:04:37.853Z,96452.63
2022-12-22T00:07:23.071Z,96447.28
2022-12-22T00:10:08.102Z,96436.59
2022-12-22T00:12:54.820Z,96431.84
2022-12-22T00:15:39.903Z,96442.09
2022-12-22T00:18:25.276Z,96446.91
2022-12-22T00:21:10.469Z,96437.03
2022-12-22T00:23:55.484Z,96422.34
2022-12-22T00:26:40.673Z,96417.03
2022-12-22T00:29:32.527Z,96423.75
2022-12-22T00:32:17.236Z,96426.66
2022-12-22T00:35:02.383Z,96428.81
2022-12-22T00:37:52.277Z,96431.13
2022-12-22T00:40:38.601Z,96434.97
2022-12-22T00:43:23.840Z,96423.66
2022-12-22T00:46:10.118Z,96433.22
2022-12-22T00:48:56.078Z,96417.56
2022-12-22T00:51:41.107Z,96412.09
2022-12-22T00:54:30.197Z,96414.44
2022-12-22T00:57:18.526Z,96414.69
2022-12-22T01:00:04.615Z,96407.16
2022-12-22T01:02:55.177Z,96401.00
2022-12-22T01:05:40.266Z,96400.47
2022-12-22T01:08:29.106Z,96402.72
2022-12-22T01:11:14.175Z,96397.16
2022-12-22T01:13:59.084Z,96405.25
2022-12-22T01:16:44.177Z,96403.75
2022-12-22T01:19:29.275Z,96403.47
2022-12-22T01:22:15.865Z,96399.50
2022-12-22T01:25:04.414Z,96401.94
2022-12-22T01:27:49.481Z,96394.94
2022-12-22T01:30:34.361Z,96401.66
2022-12-22T01:33:20.311Z,96397.41
2022-12-22T01:36:05.153Z,96389.34
2022-12-22T01:38:50.045Z,96394.81
2022-12-22T01:41:38.825Z,96397.84
2022-12-22T01:44:31.669Z,96385.78
2022-12-22T01:47:35.635Z,96388.56
2022-12-22T01:50:20.657Z,96372.75
2022-12-22T01:53:05.846Z,96370.59
2022-12-22T01:55:58.061Z,96360.19
2022-12-22T01:58:49.042Z,96349.03
2022-12-22T02:01:34.102Z,96338.59
2022-12-22T02:04:19.457Z,96333.88
2022-12-22T02:07:05.185Z,96323.47
2022-12-22T02:10:28.959Z,96317.44
2022-12-22T02:16:44.503Z,96334.00
2022-12-22T02:19:45.166Z,96329.22
2022-12-22T02:22:32.853Z,96326.56
2022-12-22T02:25:27.706Z,96320.78
2022-12-22T02:28:14.228Z,96311.72
2022-12-22T02:30:59.887Z,96315.09
2022-12-22T02:33:45.111Z,96313.69
2022-12-22T02:36:39.591Z,96313.50
2022-12-22T02:39:33.742Z,96316.19
2022-12-22T02:42:36.222Z,96309.72
2022-12-22T02:45:36.995Z,96305.00
2022-12-22T02:48:21.759Z,96313.69
2022-12-22T02:51:13.799Z,96314.91
2022-12-22T02:53:59.196Z,96315.00
2022-12-22T02:56:44.342Z,96306.16
2022-12-22T02:59:29.524Z,96306.06
2022-12-22T03:02:14.664Z,96307.78
2022-12-22T03:05:05.112Z,96304.78
2022-12-22T03:07:50.004Z,96310.50
2022-12-22T03:10:34.993Z,96302.81
2022-12-22T03:13:20.282Z,96292.16
2022-12-22T03:16:05.213Z,96288.84
2022-12-22T03:19:10.150Z,96282.94
2022-12-22T03:21:55.527Z,96276.25
2022-12-22T03:24:42.455Z,96265.31
2022-12-22T03:27:08.772Z,96267.31
2022-12-22T03:29:35.109Z,96267.72
2022-12-22T03:32:01.559Z,96265.19
2022-12-22T03:34:27.926Z,96257.31
2022-12-22T03:36:54.291Z,96248.00
2022-12-22T03:39:20.624Z,96249.13
2022-12-22T03:42:05.387Z,96238.16
2022-12-22T03:44:50.168Z,96248.19
2022-12-22T03:47:16.570Z,96232.41
2022-12-22T03:49:45.015Z,96232.34
2022-12-22T03:52:11.385Z,96230.03
2022-12-22T03:54:39.772Z,96226.50
2022-12-22T03:57:06.119Z,96229.09
2022-12-22T03:59:32.557Z,96216.75
2022-12-22T04:01:59.085Z,96226.50
2022-12-22T04:04:26.295Z,96225.53
2022-12-22T04:06:53.157Z,96230.94
2022-12-22T04:09:34.616Z,96221.66
2022-12-22T04:12:19.676Z,96221.66
2022-12-22T04:14:54.187Z,96217.91
2022-12-22T04:17:20.510Z,96214.44
2022-12-22T04:19:50.947Z,96220.47
2022-12-22T04:22:17.319Z,96216.22
2022-12-22T04:24:43.667Z,96215.63
2022-12-22T04:27:09.989Z,96209.41
2022-12-22T04:29:36.309Z,96208.44
2022-12-22T04:32:03.847Z,96202.47
2022-12-22T04:34:30.215Z,96208.13
2022-12-22T04:37:02.331Z,96205.50
2022-12-22T04:39:33.805Z,96198.63
2022-12-22T04:42:00.146Z,96192.16
2022-12-22T04:44:26.468Z,96198.69
2022-12-22T04:46:52.774Z,96192.91
2022-12-22T04:49:19.071Z,96192.69
2022-12-22T04:51:45.410Z,96192.44
2022-12-22T04:54:11.776Z,96190.97
2022-12-22T04:56:38.099Z,96190.13
2022-12-22T04:59:04.422Z,96180.63
2022-12-22T05:01:30.962Z,96171.63
2022-12-22T05:03:57.369Z,96159.66
2022-12-22T05:06:23.701Z,96161.59
2022-12-22T05:08:50.104Z,96155.75
2022-12-22T05:11:16.735Z,96161.50
2022-12-22T05:13:43.175Z,96157.00
2022-12-22T05:16:11.065Z,96154.47
2022-12-22T05:18:38.133Z,96151.91
2022-12-22T05:21:06.654Z,96148.72
2022-12-22T05:23:40.067Z,96148.72
2022-12-22T05:26:06.691Z,96148.03
2022-12-22T05:28:35.177Z,96149.69
2022-12-22T05:31:06.468Z,96145.97
2022-12-22T05:33:32.889Z,96145.56
2022-12-22T05:36:00.483Z,96148.44
2022-12-22T05:38:26.897Z,96147.81
2022-12-22T05:40:58.267Z,96147.53
2022-12-22T05:43:33.114Z,96150.59
2022-12-22T05:46:03.716Z,96153.78
2022-12-22T05:48:54.885Z,96156.81
2022-12-22T05:51:21.204Z,96151.81
2022-12-22T05:53:47.523Z,96148.25
2022-12-22T05:56:13.849Z,96152.03
2022-12-22T05:58:40.208Z,96158.06
2022-12-22T06:01:07.068Z,96149.47
2022-12-22T06:03:33.540Z,96156.03
2022-12-22T06:06:00.157Z,96156.53
2022-12-22T06:08:31.624Z,96163.66
2022-12-22T06:10:58.626Z,96144.88
2022-12-22T06:13:25.644Z,96144.66
2022-12-22T06:15:51.995Z,96156.19
2022-12-22T06:18:18.387Z,96154.75
2022-12-22T06:20:47.891Z,96156.09
2022-12-22T06:23:15.265Z,96149.97
2022-12-22T06:25:41.624Z,96148.56
2022-12-22T06:28:11.331Z,96154.56
2022-12-22T06:30:49.151Z,96144.44
2022-12-22T06:33:15.566Z,96147.03
2022-12-22T06:35:43.950Z,96143.44
2022-12-22T06:38:10.298Z,96136.06
2022-12-22T06:40:36.657Z,96135.72
2022-12-22T06:43:09.780Z,96139.06
2022-12-22T06:45:40.586Z,96138.97
2022-12-22T06:48:13.308Z,96136.97
2022-12-22T06:50:39.837Z,96128.19
2022-12-22T06:53:06.511Z,96129.22
2022-12-22T06:55:32.832Z,96134.94
2022-12-22T06:57:59.227Z,96128.91
2022-12-22T07:00:36.717Z,96124.38
2022-12-22T07:03:03.204Z,96127.78
2022-12-22T07:05:31.776Z,96123.06
2022-12-22T07:08:02.702Z,96129.38
2022-12-22T07:10:59.721Z,96135.38
2022-12-22T07:13:27.736Z,96131.84
2022-12-22T07:16:02.191Z,96123.19
2022-12-22T07:18:29.636Z,96124.31
2022-12-22T07:21:04.429Z,96124.97
2022-12-22T07:23:31.338Z,96115.09
2022-12-22T07:25:59.906Z,96119.06
2022-12-22T07:28:26.316Z,96118.81
2022-12-22T07:30:53.589Z,96118.16
2022-12-22T07:33:20.223Z,96108.56
2022-12-22T07:35:46.760Z,96109.25
2022-12-22T07:38:13.355Z,96102.28
2022-12-22T07:40:42.552Z,96104.88
2022-12-22T07:43:09.825Z,96093.00
2022-12-22T07:45:36.492Z,96098.72
2022-12-22T07:48:22.933Z,96097.72
2022-12-22T07:50:49.274Z,96088.66
2022-12-22T07:53:15.603Z,96087.22
2022-12-22T07:55:41.918Z,96073.78
2022-12-22T07:58:08.236Z,96083.53
2022-12-22T08:00:34.565Z,96081.38
2022-12-22T08:03:04.107Z,96082.88
2022-12-22T08:05:30.544Z,96072.16
2022-12-22T08:07:56.905Z,96071.97
2022-12-22T08:10:23.218Z,96075.41
2022-12-22T08:12:49.660Z,96074.47
2022-12-22T08:15:16.080Z,96074.13
2022-12-22T08:17:42.746Z,96064.88
2022-12-22T08:20:11.431Z,96073.97
2022-12-22T08:22:37.759Z,96079.19
2022-12-22T08:25:04.373Z,96068.63
2022-12-22T08:27:39.947Z,96074.47
2022-12-22T08:30:08.457Z,96080.22
2022-12-22T08:32:36.030Z,96076.16
2022-12-22T08:35:03.011Z,96074.16
2022-12-22T08:37:41.052Z,96076.78
2022-12-22T08:40:10.695Z,96062.16
2022-12-22T08:42:37.179Z,96064.78
2022-12-22T08:45:04.107Z,96067.72
2022-12-22T08:47:30.445Z,96059.88
2022-12-22T08:50:06.177Z,96049.63
2022-12-22T08:52:32.541Z,96059.91
2022-12-22T08:54:58.868Z,96062.69
2022-12-22T08:57:25.209Z,96057.66
2022-12-22T08:59:51.543Z,96061.22
2022-12-22T09:02:19.082Z,96061.09
2022-12-22T09:04:45.565Z,96053.63
2022-12-22T09:07:11.981Z,96059.63
2022-12-22T09:09:46.633Z,96061.59
2022-12-22T09:12:12.971Z,96067.31
2022-12-22T09:14:39.269Z,96061.44
2022-12-22T09:17:05.710Z,96057.66
2022-12-22T09:19:32.124Z,96052.28
2022-12-22T09:21:58.506Z,96051.75
2022-12-22T09:24:24.829Z,96048.69
2022-12-22T09:26:51.225Z,96040.78
2022-12-22T09:29:17.592Z,96039.25
2022-12-22T09:31:44.176Z,96043.34
2022-12-22T09:34:17.112Z,96034.22
2022-12-22T09:36:44.643Z,96030.91
2022-12-22T09:39:11.720Z,96020.00
2022-12-22T09:41:43.943Z,96027.19
2022-12-22T09:44:30.303Z,96015.53
2022-12-22T09:46:58.043Z,96020.53
2022-12-22T09:49:26.496Z,96014.34
2022-12-22T09:51:54.462Z,96011.84
2022-12-22T09:54:22.077Z,96003.22
2022-12-22T09:56:48.469Z,96010.06
2022-12-22T09:59:16.317Z,96010.69
2022-12-22T10:01:56.950Z,96010.44
2022-12-22T10:04:42.456Z,96000.50
2022-12-22T10:07:08.753Z,96009.06
2022-12-22T10:09:52.088Z,95999.28
2022-12-22T10:12:21.278Z,96000.56
2022-12-22T10:14:49.037Z,96002.13
2022-12-22T10:17:28.055Z,96005.63
2022-12-22T10:20:15.707Z,96002.28
2022-12-22T10:22:49.945Z,96001.91
2022-12-22T10:25:45.212Z,95992.13
2022-12-22T10:28:19.624Z,95988.41
2022-12-22T10:30:46.220Z,95991.66
2022-12-22T10:33:14.912Z,96005.03
2022-12-22T10:35:41.260Z,95997.25
2022-12-22T10:38:27.430Z,95992.16
2022-12-22T10:41:01.856Z,96001.56
2022-12-22T10:43:34.056Z,95990.59
2022-12-22T10:46:00.879Z,95981.41
2022-12-22T10:48:28.041Z,95981.41
2022-12-22T10:50:55.082Z,95974.59
2022-12-22T10:53:21.557Z,95975.50
2022-12-22T10:56:04.520Z,95976.91
2022-12-22T10:58:30.872Z,95978.44
2022-12-22T11:01:01.960Z,95985.78
2022-12-22T11:03:29.246Z,95974.94
2022-12-22T11:05:57.453Z,95982.88
2022-12-22T11:08:24.735Z,95971.75
2022-12-22T11:11:00.932Z,95972.28
2022-12-22T11:13:27.267Z,95966.75
2022-12-22T11:15:59.432Z,95974.09
2022-12-22T11:18:45.635Z,95968.84
2022-12-22T11:21:23.632Z,95968.34
2022-12-22T11:23:50.535Z,95964.75
2022-12-22T11:26:39.812Z,95972.09
2022-12-22T11:29:15.067Z,95942.53
2022-12-22T11:32:16.756Z,95945.91
2022-12-22T11:34:58.161Z,95946.16
2022-12-22T11:37:43.408Z,95939.19
2022-12-22T11:40:24.621Z,95937.06
2022-12-22T11:43:06.410Z,95943.88
2022-12-22T11:45:51.770Z,95948.94
2022-12-22T11:48:54.614Z,95941.53
2022-12-22T11:51:26.977Z,95937.06
2022-12-22T11:53:56.176Z,95934.97
2022-12-22T11:56:24.061Z,95932.50
2022-12-22T11:58:51.359Z,95929.06
2022-12-22T12:01:26.028Z,95941.47
2022-12-22T12:04:04.781Z,95942.16
2022-12-22T12:06:36.963Z,95944.03
2022-12-22T12:09:22.024Z,95937.72
2022-12-22T12:12:22.808Z,95941.78
2022-12-22T12:14:58.703Z,95946.53
2022-12-22T12:17:44.195Z,95927.75
2022-12-22T12:20:13.319Z,95940.13
2022-12-22T12:22:48.821Z,95928.53
2022-12-22T12:25:23.769Z,95932.31
2022-12-22T12:28:10.771Z,95927.47
2022-12-22T12:30:44.928Z,95931.44
2022-12-22T12:33:20.886Z,95923.63
2022-12-22T12:35:59.195Z,95917.34
2022-12-22T12:39:06.293Z,95919.88
2022-12-22T12:41:23.378Z,95918.72
2022-12-22T12:43:52.155Z,95915.97
2022-12-22T12:46:37.102Z,95916.19
2022-12-22T12:49:03.566Z,95922.31
2022-12-22T12:51:46.659Z,95916.06
2022-12-22T12:54:37.556Z,95915.81
2022-12-22T12:57:06.953Z,95929.16
2022-12-22T12:59:39.379Z,95925.47
2022-12-22T13:02:25.944Z,95921.50
2022-12-22T13:05:07.750Z,95925.09
2022-12-22T13:08:01.098Z,95919.50
2022-12-22T13:10:27.601Z,95921.50
2022-12-22T13:12:54.488Z,95937.09
2022-12-22T13:15:33.110Z,95933.22
2022-12-22T13:18:00.315Z,95929.09
2022-12-22T13:20:47.104Z,95936.84
2022-12-22T13:23:14.700Z,95945.22
2022-12-22T13:25:44.274Z,95940.53
2022-12-22T13:28:14.615Z,95944.03
2022-12-22T13:30:49.306Z,95950.00
2022-12-22T13:33:17.494Z,95950.91
2022-12-22T13:35:48.459Z,95950.38
2022-12-22T13:38:31.112Z,95949.84
2022-12-22T13:41:26.807Z,95943.81
2022-12-22T13:43:57.186Z,95942.53
2022-12-22T13:46:26.804Z,95948.03
2022-12-22T13:48:55.978Z,95952.72
2022-12-22T13:51:24.541Z,95955.41
2022-12-22T13:54:08.222Z,95952.63
2022-12-22T13:56:38.232Z,95959.13
2022-12-22T13:59:04.940Z,95967.31
2022-12-22T14:01:31.392Z,95968.50
2022-12-22T14:04:07.494Z,95973.72
2022-12-22T14:06:36.223Z,95972.81
2022-12-22T14:09:23.266Z,95969.56
2022-12-22T14:11:57.057Z,95976.03
2022-12-22T14:14:26.261Z,95979.78
2022-12-22T14:16:53.681Z,95978.78
2022-12-22T14:19:22.700Z,95982.63
2022-12-22T14:21:54.391Z,95991.13
2022-12-22T14:24:24.377Z,95995.47
2022-12-22T14:26:52.270Z,95993.66
2022-12-22T14:29:25.564Z,95989.78
2022-12-22T14:31:56.286Z,95997.56
2022-12-22T14:34:28.204Z,95998.97
2022-12-22T14:36:54.868Z,96005.28
2022-12-22T14:39:24.124Z,96003.34
2022-12-22T14:41:52.854Z,96015.03
2022-12-22T14:44:48.523Z,96014.25
2022-12-22T14:47:18.102Z,96013.78
2022-12-22T14:49:51.361Z,96020.84
2022-12-22T14:52:29.733Z,96024.91
2022-12-22T14:54:56.656Z,96023.72
2022-12-22T14:57:42.565Z,96038.00
2022-12-22T15:00:24.433Z,96033.44
2022-12-22T15:02:56.477Z,96041.25
2022-12-22T15:05:38.035Z,96044.31
2022-12-22T15:08:08.366Z,96054.03
2022-12-22T15:10:43.285Z,96047.63
2022-12-22T15:13:19.192Z,96056.16
2022-12-22T15:15:49.564Z,96053.31
2022-12-22T15:18:25.249Z,96053.59
2022-12-22T15:20:56.460Z,96062.81
2022-12-22T15:23:25.946Z,96065.88
2022-12-22T15:25:59.200Z,96067.13
2022-12-22T15:28:25.711Z,96063.69
2022-12-22T15:30:52.474Z,96079.28
2022-12-22T15:33:20.009Z,96086.78
2022-12-22T15:35:52.424Z,96082.94
2022-12-22T15:38:20.189Z,96098.78
2022-12-22T15:40:47.044Z,96096.19
2022-12-22T15:43:37.185Z,96098.44
2022-12-22T15:46:03.674Z,96106.78
2022-12-22T15:48:33.011Z,96106.50
2022-12-22T15:51:00.062Z,96109.56
2022-12-22T15:53:27.571Z,96111.63
2022-12-22T15:55:55.409Z,96114.06
2022-12-22T15:58:23.732Z,96118.13
2022-12-22T16:00:56.339Z,96118.00
2022-12-22T16:03:22.840Z,96126.03
2022-12-22T16:05:49.262Z,96129.09
2022-12-22T16:08:18.365Z,96134.66
2022-12-22T16:10:45.410Z,96132.38
2022-12-22T16:13:13.516Z,96139.44
2022-12-22T16:15:41.351Z,96139.88
2022-12-22T16:18:11.691Z,96143.03
2022-12-22T16:20:40.306Z,96137.66
2022-12-22T16:23:07.949Z,96145.28
2022-12-22T16:25:35.458Z,96143.47
2022-12-22T16:28:02.375Z,96143.00
2022-12-22T16:30:30.713Z,96151.28
2022-12-22T16:32:57.235Z,96154.47
2022-12-22T16:35:28.782Z,96163.69
2022-12-22T16:37:55.644Z,96162.78
2022-12-22T16:40:22.303Z,96161.91
2022-12-22T16:45:51.292Z,96167.94
2022-12-22T16:48:40.815Z,96172.34
2022-12-22T16:51:07.476Z,96164.16
2022-12-22T16:53:33.828Z,96175.78
2022-12-22T16:56:00.515Z,96178.78
2022-12-22T16:58:26.944Z,96180.84
2022-12-22T17:00:53.350Z,96192.50
2022-12-22T17:03:22.665Z,96193.69
2022-12-22T17:05:51.605Z,96195.22
2022-12-22T17:08:21.202Z,96204.53
2022-12-22T17:10:47.696Z,96205.22
2022-12-22T17:13:14.215Z,96203.94
2022-12-22T17:15:40.588Z,96210.72
2022-12-22T17:18:15.287Z,96212.13
2022-12-22T17:20:41.856Z,96213.59
2022-12-22T17:23:21.419Z,96211.84
2022-12-22T17:25:48.848Z,96214.97
2022-12-22T17:28:15.332Z,96211.50
2022-12-22T17:30:41.819Z,96209.75
2022-12-22T17:33:13.500Z,96214.28
2022-12-22T17:35:42.447Z,96214.41
2022-12-22T17:38:18.370Z,96208.22
2022-12-22T17:40:45.766Z,96212.22
2022-12-22T17:43:16.578Z,96213.03
2022-12-22T17:45:49.088Z,96209.38
2022-12-22T17:48:24.518Z,96210.66
2022-12-22T17:50:57.812Z,96208.34
2022-12-22T17:53:26.297Z,96215.31
2022-12-22T17:56:11.145Z,96212.88
2022-12-22T17:58:39.616Z,96205.03
2022-12-22T18:01:09.924Z,96208.16
2022-12-22T18:03:36.410Z,96205.19
2022-12-22T18:06:02.950Z,96207.34
2022-12-22T18:08:29.304Z,96199.16
2022-12-22T18:10:55.698Z,96198.34
2022-12-22T18:13:25.153Z,96202.06
2022-12-22T18:15:51.904Z,96198.63
2022-12-22T18:18:21.580Z,96199.75
2022-12-22T18:21:05.933Z,96205.28
2022-12-22T18:23:34.371Z,96206.34
2022-12-22T18:26:01.515Z,96208.03
2022-12-22T18:28:27.934Z,96198.91
2022-12-22T18:30:55.354Z,96205.81
2022-12-22T18:33:21.696Z,96205.28
2022-12-22T18:35:50.134Z,96200.25
2022-12-22T18:38:32.940Z,96204.03
2022-12-22T18:40:59.472Z,96204.66
2022-12-22T18:43:26.013Z,96203.66
2022-12-22T18:45:54.550Z,96206.09
2022-12-22T18:48:21.117Z,96205.09
2022-12-22T18:50:47.487Z,96203.94
2022-12-22T18:53:26.508Z,96204.66
2022-12-22T18:55:53.081Z,96196.78
2022-12-22T18:58:19.596Z,96201.97
2022-12-22T19:00:46.222Z,96196.97
2022-12-22T19:03:20.481Z,96198.13
2022-12-22T19:05:47.690Z,96203.22
2022-12-22T19:08:15.272Z,96205.84
2022-12-22T19:10:43.860Z,96200.78
2022-12-22T19:13:17.412Z,96205.69
2022-12-22T19:15:44.781Z,96207.03
2022-12-22T19:18:16.708Z,96203.81
2022-12-22T19:20:45.024Z,96201.53
2022-12-22T19:23:15.710Z,96198.63
2022-12-22T19:25:43.364Z,96198.03
2022-12-22T19:28:18.776Z,96201.72
2022-12-22T19:30:45.198Z,96200.59
2022-12-22T19:33:17.148Z,96193.91
2022-12-22T19:35:43.475Z,96196.50
2022-12-22T19:38:17.205Z,96189.34
2022-12-22T19:40:44.663Z,96185.59
2022-12-22T19:43:11.221Z,96176.84
2022-12-22T19:45:37.726Z,96177.91
2022-12-22T19:48:04.888Z,96174.38
2022-12-22T19:50:32.597Z,96176.84
2022-12-22T19:53:07.117Z,96172.50
2022-12-22T19:55:36.380Z,96172.78
2022-12-22T19:58:03.026Z,96179.16
2022-12-22T20:00:29.491Z,96175.84
2022-12-22T20:02:57.263Z,96185.84
2022-12-22T20:05:24.753Z,96178.13
2022-12-22T20:07:51.976Z,96179.16
2022-12-22T20:10:20.167Z,96173.56
2022-12-22T20:12:47.677Z,96169.22
2022-12-22T20:15:14.154Z,96167.75
2022-12-22T20:17:40.489Z,96163.19
2022-12-22T20:20:07.215Z,96153.53
2022-12-22T20:22:36.997Z,96156.47
2022-12-22T20:25:03.451Z,96154.97
2022-12-22T20:27:32.802Z,96152.16
2022-12-22T20:30:00.052Z,96144.00
2022-12-22T20:32:28.331Z,96138.94
2022-12-22T20:34:55.183Z,96142.66
2022-12-22T20:37:21.678Z,96149.84
2022-12-22T20:39:48.015Z,96143.63
2022-12-22T20:42:24.123Z,96147.06
2022-12-22T20:45:02.524Z,96146.25
2022-12-22T20:47:30.922Z,96151.13
2022-12-22T20:49:57.263Z,96146.91
2022-12-22T20:52:23.591Z,96148.69
2022-12-22T20:54:49.971Z,96139.50
2022-12-22T20:57:16.449Z,96134.94
2022-12-22T20:59:43.394Z,96129.22
2022-12-22T21:02:23.713Z,96126.59
2022-12-22T21:04:50.225Z,96123.69
2022-12-22T21:07:16.579Z,96119.78
2022-12-22T21:09:42.925Z,96128.34
2022-12-22T21:12:11.436Z,96121.38
2022-12-22T21:14:37.827Z,96116.81
2022-12-22T21:17:04.229Z,96120.56
2022-12-22T21:19:30.621Z,96115.88
2022-12-22T21:21:56.960Z,96105.13
2022-12-22T21:24:23.297Z,96105.78
2022-12-22T21:26:51.823Z,96106.78
2022-12-22T21:29:21.651Z,96103.41
2022-12-22T21:31:48.027Z,96096.56
2022-12-22T21:34:14.371Z,96101.63
2022-12-22T21:36:43.392Z,96095.75
2022-12-22T21:39:26.366Z,96097.28
2022-12-22T21:42:03.261Z,96091.84
2022-12-22T21:44:34.071Z,96091.69
2022-12-22T21:47:00.720Z,96093.38
2022-12-22T21:49:28.904Z,96092.88
2022-12-22T21:51:55.557Z,96092.06
2022-12-22T21:54:23.547Z,96079.31
2022-12-22T21:56:50.659Z,96072.13
2022-12-22T21:59:19.391Z,96075.34
2022-12-22T22:01:46.560Z,96071.91
2022-12-22T22:04:13.270Z,96076.63
2022-12-22T22:06:39.730Z,96068.78
2022-12-22T22:09:08.157Z,96075.66
2022-12-22T22:11:54.825Z,96064.72
2022-12-22T22:14:21.677Z,96065.19
2022-12-22T22:16:56.021Z,96058.00
2022-12-22T22:19:22.343Z,96055.22
2022-12-22T22:21:48.802Z,96045.59
2022-12-22T22:24:16.165Z,96044.44
2022-12-22T22:26:44.475Z,96042.00
2022-12-22T22:29:10.792Z,96047.53
2022-12-22T22:31:37.190Z,96045.91
2022-12-22T22:34:03.565Z,96038.72
2022-12-22T22:36:29.910Z,96037.09
2022-12-22T22:38:56.266Z,96028.25
2022-12-22T22:41:22.748Z,96030.72
2022-12-22T22:43:49.092Z,96023.53
2022-12-22T22:46:15.519Z,96019.34
2022-12-22T22:48:41.932Z,96010.25
2022-12-22T22:51:09.908Z,96005.44
2022-12-22T22:53:36.392Z,96011.66
2022-12-22T22:56:02.851Z,96007.06
2022-12-22T22:58:29.690Z,96001.56
2022-12-22T23:00:56.510Z,96002.22
2022-12-22T23:03:23.230Z,95989.16
2022-12-22T23:05:49.709Z,95991.56
2022-12-22T23:08:16.082Z,95985.53
2022-12-22T23:10:47.311Z,95980.16
2022-12-22T23:13:13.662Z,95983.22
2022-12-22T23:15:40.009Z,95978.88
2022-12-22T23:18:07.516Z,95982.63
2022-12-22T23:20:33.836Z,95972.66
2022-12-22T23:23:01.194Z,95975.88
2022-12-22T23:25:27.517Z,95970.50
2022-12-22T23:27:53.852Z,95975.13
2022-12-22T23:30:20.190Z,95967.44
2022-12-22T23:32:46.597Z,95964.28
2022-12-22T23:35:12.921Z,95961.53
2022-12-22T23:37:39.263Z,95960.03
2022-12-22T23:42:57.062Z,95961.38
2022-12-22T23:45:23.685Z,95959.59
2022-12-22T23:47:50.046Z,95955.88
2022-12-22T23:50:16.371Z,95944.25
2022-12-22T23:52:47.330Z,95947.41
2022-12-22T23:55:15.734Z,95939.03
2022-12-22T23:57:42.119Z,95932.03
